createdAt,value
2022-12-12T00:00:42.464Z,-0.10
2022-12-12T00:03:09.561Z,0.00
2022-12-12T00:05:36.936Z,0.00
2022-12-12T00:08:03.610Z,-0.10
2022-12-12T00:10:30.316Z,0.00
2022-12-12T00:12:56.972Z,0.00
2022-12-12T00:15:24.029Z,0.00
2022-12-12T00:17:50.678Z,0.00
2022-12-12T00:20:17.621Z,0.00
2022-12-12T00:22:44.229Z,0.00
2022-12-12T00:25:11.206Z,0.00
2022-12-12T00:27:38.125Z,0.00
2022-12-12T00:30:04.756Z,0.10
2022-12-12T00:32:31.564Z,0.00
2022-12-12T00:34:58.357Z,0.10
2022-12-12T00:37:24.998Z,0.00
2022-12-12T00:39:51.757Z,0.00
2022-12-12T00:42:18.556Z,0.10
2022-12-12T00:44:45.188Z,0.10
2022-12-12T00:47:11.839Z,0.10
2022-12-12T00:49:38.778Z,0.00
2022-12-12T00:52:07.233Z,0.10
2022-12-12T00:54:33.897Z,0.00
2022-12-12T00:57:00.645Z,0.00
2022-12-12T00:59:27.950Z,0.10
2022-12-12T01:01:54.656Z,0.10
2022-12-12T01:04:21.504Z,0.00
2022-12-12T01:06:48.120Z,0.00
2022-12-12T01:09:14.779Z,0.00
2022-12-12T01:11:41.379Z,0.00
2022-12-12T01:14:08.158Z,0.00
2022-12-12T01:16:34.875Z,0.00
2022-12-12T01:19:01.644Z,0.00
2022-12-12T01:21:28.612Z,0.00
2022-12-12T01:23:55.257Z,0.00
2022-12-12T01:26:21.909Z,0.00
2022-12-12T01:28:48.574Z,0.00
2022-12-12T01:31:15.257Z,0.00
2022-12-12T01:33:46.098Z,0.00
2022-12-12T01:36:16.723Z,0.00
2022-12-12T01:38:43.840Z,0.00
2022-12-12T01:41:11.052Z,0.00
2022-12-12T01:43:38.352Z,0.00
2022-12-12T01:46:05.060Z,0.00
2022-12-12T01:48:31.741Z,-0.10
2022-12-12T01:50:58.344Z,-0.10
2022-12-12T01:53:24.973Z,-0.10
2022-12-12T01:55:51.614Z,-0.10
2022-12-12T01:58:18.299Z,-0.10
2022-12-12T02:00:45.142Z,-0.10
2022-12-12T02:03:11.758Z,-0.10
2022-12-12T02:05:38.404Z,-0.10
2022-12-12T02:08:05.044Z,-0.10
2022-12-12T02:10:31.729Z,-0.10
2022-12-12T02:12:58.678Z,-0.10
2022-12-12T02:15:25.534Z,-0.10
2022-12-12T02:17:52.163Z,-0.10
2022-12-12T02:20:18.807Z,-0.10
2022-12-12T02:22:47.633Z,0.00
2022-12-12T02:25:14.531Z,-0.10
2022-12-12T02:27:41.411Z,-0.10
2022-12-12T02:30:08.040Z,-0.10
2022-12-12T02:32:34.631Z,-0.10
2022-12-12T02:35:01.282Z,-0.10
2022-12-12T02:37:27.884Z,-0.10
2022-12-12T02:39:54.491Z,-0.20
2022-12-12T02:42:21.277Z,-0.10
2022-12-12T02:44:47.930Z,-0.10
2022-12-12T02:47:14.561Z,-0.10
2022-12-12T02:49:41.332Z,-0.10
2022-12-12T02:52:08.063Z,-0.20
2022-12-12T02:54:34.821Z,-0.10
2022-12-12T02:57:01.410Z,-0.10
2022-12-12T02:59:28.199Z,-0.10
2022-12-12T03:01:55.068Z,-0.20
2022-12-12T03:04:40.680Z,-0.10
2022-12-12T03:07:26.089Z,-0.10
2022-12-12T03:09:52.728Z,-0.10
2022-12-12T03:12:19.378Z,-0.10
2022-12-12T03:14:46.121Z,-0.20
2022-12-12T03:17:12.832Z,-0.10
2022-12-12T03:19:39.444Z,-0.10
2022-12-12T03:22:06.057Z,-0.10
2022-12-12T03:24:32.668Z,-0.10
2022-12-12T03:26:59.326Z,0.00
2022-12-12T03:29:25.917Z,-0.10
2022-12-12T03:31:52.603Z,-0.10
2022-12-12T03:34:19.762Z,0.00
2022-12-12T03:36:46.560Z,-0.10
2022-12-12T03:39:13.218Z,-0.10
2022-12-12T03:41:39.840Z,-0.10
2022-12-12T03:44:06.469Z,0.00
2022-12-12T03:46:33.122Z,0.00
2022-12-12T03:48:59.853Z,0.00
2022-12-12T03:51:26.500Z,0.00
2022-12-12T03:53:53.226Z,0.00
2022-12-12T03:56:19.937Z,0.00
2022-12-12T03:58:46.763Z,0.00
2022-12-12T04:01:13.403Z,0.00
2022-12-12T04:03:39.993Z,0.00
2022-12-12T04:06:25.408Z,0.00
2022-12-12T04:09:10.724Z,0.00
2022-12-12T04:11:55.933Z,0.00
2022-12-12T04:14:22.535Z,0.00
2022-12-12T04:16:49.199Z,0.00
2022-12-12T04:19:35.842Z,0.00
2022-12-12T04:22:27.045Z,0.00
2022-12-12T04:24:53.945Z,0.10
2022-12-12T04:27:20.601Z,0.10
2022-12-12T04:29:47.221Z,0.00
2022-12-12T04:32:13.904Z,0.00
2022-12-12T04:34:40.579Z,0.10
2022-12-12T04:37:07.206Z,0.00
2022-12-12T04:39:33.870Z,0.00
2022-12-12T04:42:01.043Z,0.00
2022-12-12T04:44:27.884Z,0.00
2022-12-12T04:46:54.605Z,0.10
2022-12-12T04:49:21.336Z,0.10
2022-12-12T04:51:48.184Z,0.10
2022-12-12T04:54:14.809Z,0.10
2022-12-12T04:56:41.430Z,0.10
2022-12-12T04:59:08.099Z,0.00
2022-12-12T05:01:34.848Z,0.10
2022-12-12T05:04:01.584Z,0.10
2022-12-12T05:06:28.345Z,0.10
2022-12-12T05:08:54.938Z,0.00
2022-12-12T05:11:22.281Z,0.00
2022-12-12T05:13:48.920Z,0.00
2022-12-12T05:16:15.619Z,0.00
2022-12-12T05:18:42.382Z,0.10
2022-12-12T05:21:09.063Z,0.10
2022-12-12T05:23:35.786Z,0.10
2022-12-12T05:26:02.816Z,0.00
2022-12-12T05:28:29.465Z,0.00
2022-12-12T05:30:56.123Z,0.10
2022-12-12T05:33:22.759Z,0.10
2022-12-12T05:35:49.598Z,0.00
2022-12-12T05:38:16.649Z,0.10
2022-12-12T05:40:43.541Z,0.10
2022-12-12T05:43:10.447Z,0.10
2022-12-12T05:45:37.269Z,0.00
2022-12-12T05:48:04.315Z,0.10
2022-12-12T05:50:30.971Z,0.10
2022-12-12T05:52:57.620Z,0.10
2022-12-12T05:55:24.267Z,0.10
2022-12-12T05:57:50.927Z,0.10
2022-12-12T06:00:17.710Z,0.10
2022-12-12T06:02:44.785Z,0.10
2022-12-12T06:05:12.014Z,0.10
2022-12-12T06:07:39.391Z,0.10
2022-12-12T06:10:06.125Z,0.10
2022-12-12T06:12:32.736Z,0.10
2022-12-12T06:14:59.350Z,0.10
2022-12-12T06:17:29.677Z,0.10
2022-12-12T06:20:00.053Z,0.10
2022-12-12T06:22:26.640Z,0.10
2022-12-12T06:24:53.327Z,0.10
2022-12-12T06:27:20.017Z,0.10
2022-12-12T06:29:46.616Z,0.10
2022-12-12T06:32:13.227Z,0.10
2022-12-12T06:34:39.970Z,0.10
2022-12-12T06:37:06.678Z,0.10
2022-12-12T06:39:33.305Z,0.10
2022-12-12T06:42:00.156Z,0.10
2022-12-12T06:44:26.840Z,0.00
2022-12-12T06:46:53.473Z,0.10
2022-12-12T06:49:20.297Z,0.10
2022-12-12T06:51:48.950Z,0.10
2022-12-12T06:54:16.233Z,0.10
2022-12-12T06:56:47.920Z,0.10
2022-12-12T06:59:15.702Z,0.10
2022-12-12T07:01:42.441Z,0.10
2022-12-12T07:04:09.124Z,0.20
2022-12-12T07:06:36.232Z,0.10
2022-12-12T07:09:03.230Z,0.10
2022-12-12T07:11:30.057Z,0.10
2022-12-12T07:13:56.698Z,0.10
2022-12-12T07:16:23.653Z,0.10
2022-12-12T07:18:50.284Z,0.10
2022-12-12T07:21:17.053Z,0.10
2022-12-12T07:23:44.073Z,0.20
2022-12-12T07:26:10.705Z,0.10
2022-12-12T07:28:38.308Z,0.10
2022-12-12T07:31:05.141Z,0.10
2022-12-12T07:33:42.636Z,0.20
2022-12-12T07:36:10.611Z,0.10
2022-12-12T07:38:37.284Z,0.10
2022-12-12T07:41:03.965Z,0.10
2022-12-12T07:43:33.161Z,0.10
2022-12-12T07:46:00.796Z,0.20
2022-12-12T07:48:27.680Z,0.10
2022-12-12T07:50:56.961Z,0.10
2022-12-12T07:53:23.627Z,0.10
2022-12-12T07:55:50.315Z,0.10
2022-12-12T07:58:17.014Z,0.20
2022-12-12T08:00:43.740Z,0.10
2022-12-12T08:03:10.472Z,0.10
2022-12-12T08:05:37.110Z,0.10
2022-12-12T08:08:06.387Z,0.10
2022-12-12T08:10:33.109Z,0.10
2022-12-12T08:12:59.782Z,0.10
2022-12-12T08:15:26.434Z,0.10
2022-12-12T08:17:53.090Z,0.10
2022-12-12T08:20:19.757Z,0.10
2022-12-12T08:22:46.479Z,0.10
2022-12-12T08:25:13.494Z,0.20
2022-12-12T08:27:42.337Z,0.20
2022-12-12T08:30:09.806Z,0.20
2022-12-12T08:32:36.559Z,0.20
2022-12-12T08:35:03.841Z,0.20
2022-12-12T08:37:30.547Z,0.20
2022-12-12T08:39:57.178Z,0.20
2022-12-12T08:42:24.480Z,0.20
2022-12-12T08:44:51.319Z,0.20
2022-12-12T08:47:18.168Z,0.20
2022-12-12T08:49:44.872Z,0.30
2022-12-12T08:52:11.595Z,0.30
2022-12-12T08:54:38.226Z,0.30
2022-12-12T08:57:05.158Z,0.30
2022-12-12T08:59:31.866Z,0.30
2022-12-12T09:01:58.855Z,0.30
2022-12-12T09:04:25.724Z,0.30
2022-12-12T09:06:52.595Z,0.30
2022-12-12T09:09:19.266Z,0.30
2022-12-12T09:11:45.923Z,0.40
2022-12-12T09:14:12.801Z,0.30
2022-12-12T09:16:39.757Z,0.30
2022-12-12T09:19:06.486Z,0.30
2022-12-12T09:21:33.182Z,0.40
2022-12-12T09:23:59.826Z,0.30
2022-12-12T09:26:29.842Z,0.40
2022-12-12T09:28:56.491Z,0.40
2022-12-12T09:31:23.464Z,0.40
2022-12-12T09:33:50.677Z,0.40
2022-12-12T09:36:17.405Z,0.40
2022-12-12T09:38:44.229Z,0.40
2022-12-12T09:41:10.900Z,0.50
2022-12-12T09:43:37.541Z,0.50
2022-12-12T09:46:04.268Z,0.50
2022-12-12T09:48:31.090Z,0.50
2022-12-12T09:50:57.710Z,0.50
2022-12-12T09:53:24.326Z,0.50
2022-12-12T09:55:50.989Z,0.50
2022-12-12T09:58:17.758Z,0.50
2022-12-12T10:00:44.686Z,0.60
2022-12-12T10:03:11.380Z,0.60
2022-12-12T10:05:38.654Z,0.60
2022-12-12T10:08:05.289Z,0.60
2022-12-12T10:10:31.963Z,0.60
2022-12-12T10:12:58.614Z,0.60
2022-12-12T10:15:25.244Z,0.70
2022-12-12T10:17:51.863Z,0.70
2022-12-12T10:20:18.446Z,0.70
2022-12-12T10:22:45.088Z,0.70
2022-12-12T10:25:11.742Z,0.70
2022-12-12T10:27:38.311Z,0.60
2022-12-12T10:30:04.902Z,0.60
2022-12-12T10:32:31.523Z,0.60
2022-12-12T10:34:58.373Z,0.60
2022-12-12T10:37:24.995Z,0.70
2022-12-12T10:39:51.650Z,0.60
2022-12-12T10:42:18.252Z,0.70
2022-12-12T10:44:47.393Z,0.60
2022-12-12T10:47:14.559Z,0.70
2022-12-12T10:49:42.157Z,0.70
2022-12-12T10:52:08.789Z,0.70
2022-12-12T10:54:35.431Z,0.70
2022-12-12T10:57:02.101Z,0.70
2022-12-12T10:59:28.835Z,0.70
2022-12-12T11:02:11.194Z,0.60
2022-12-12T11:04:37.981Z,0.70
2022-12-12T11:07:04.878Z,0.80
2022-12-12T11:09:31.456Z,0.80
2022-12-12T11:11:58.332Z,0.80
2022-12-12T11:14:24.920Z,0.80
2022-12-12T11:16:51.550Z,0.80
2022-12-12T11:19:18.272Z,0.80
2022-12-12T11:21:44.859Z,0.90
2022-12-12T11:24:11.457Z,0.90
2022-12-12T11:26:38.062Z,1.00
2022-12-12T11:29:06.207Z,1.00
2022-12-12T11:31:32.900Z,0.90
2022-12-12T11:33:59.561Z,1.00
2022-12-12T11:36:26.155Z,1.00
2022-12-12T11:38:52.820Z,1.00
2022-12-12T11:41:19.425Z,1.00
2022-12-12T11:43:46.314Z,1.10
2022-12-12T11:46:12.947Z,1.00
2022-12-12T11:48:39.597Z,1.10
2022-12-12T11:51:06.204Z,1.10
2022-12-12T11:53:32.836Z,1.10
2022-12-12T11:55:59.496Z,1.00
2022-12-12T11:58:26.093Z,1.00
2022-12-12T12:00:52.748Z,1.00
2022-12-12T12:03:19.425Z,1.00
2022-12-12T12:05:46.158Z,0.90
2022-12-12T12:08:12.792Z,0.90
2022-12-12T12:10:39.422Z,0.90
2022-12-12T12:13:06.034Z,0.90
2022-12-12T12:15:32.696Z,1.00
2022-12-12T12:17:59.745Z,0.90
2022-12-12T12:20:26.348Z,1.00
2022-12-12T12:22:52.944Z,1.10
2022-12-12T12:25:19.568Z,1.10
2022-12-12T12:27:46.276Z,1.20
2022-12-12T12:30:13.007Z,1.20
2022-12-12T12:32:39.661Z,1.10
2022-12-12T12:35:06.252Z,1.20
2022-12-12T12:37:32.830Z,1.20
2022-12-12T12:39:59.496Z,1.20
2022-12-12T12:42:26.100Z,1.10
2022-12-12T12:44:52.693Z,1.20
2022-12-12T12:47:19.356Z,1.20
2022-12-12T12:49:46.349Z,1.20
2022-12-12T12:52:12.980Z,1.20
2022-12-12T12:54:39.647Z,1.20
2022-12-12T12:57:06.274Z,1.20
2022-12-12T12:59:33.102Z,1.30
2022-12-12T13:01:59.729Z,1.30
2022-12-12T13:04:26.349Z,1.30
2022-12-12T13:06:52.959Z,1.20
2022-12-12T13:09:19.765Z,1.20
2022-12-12T13:11:46.433Z,1.10
2022-12-12T13:14:13.116Z,1.10
2022-12-12T13:16:39.823Z,1.00
2022-12-12T13:19:06.484Z,1.00
2022-12-12T13:21:33.157Z,1.00
2022-12-12T13:23:59.802Z,1.00
2022-12-12T13:26:26.391Z,1.10
2022-12-12T13:28:53.014Z,1.00
2022-12-12T13:31:19.683Z,1.00
2022-12-12T13:33:46.746Z,1.00
2022-12-12T13:36:13.571Z,1.00
2022-12-12T13:38:40.214Z,1.00
2022-12-12T13:41:07.553Z,1.00
2022-12-12T13:43:34.186Z,1.00
2022-12-12T13:46:00.902Z,1.00
2022-12-12T13:48:27.704Z,1.00
2022-12-12T13:50:54.388Z,1.10
2022-12-12T13:53:21.105Z,1.10
2022-12-12T13:55:47.761Z,1.00
2022-12-12T13:58:14.424Z,1.00
2022-12-12T14:00:45.361Z,1.00
2022-12-12T14:03:12.256Z,1.00
2022-12-12T14:05:42.089Z,1.00
2022-12-12T14:08:08.868Z,1.10
2022-12-12T14:10:35.763Z,1.00
2022-12-12T14:13:02.453Z,1.00
2022-12-12T14:15:29.193Z,1.00
2022-12-12T14:17:55.962Z,1.00
2022-12-12T14:20:22.659Z,1.00
2022-12-12T14:22:49.423Z,1.00
2022-12-12T14:25:17.510Z,1.00
2022-12-12T14:27:44.224Z,0.90
2022-12-12T14:30:11.119Z,1.00
2022-12-12T14:32:37.927Z,0.90
2022-12-12T14:35:04.650Z,1.00
2022-12-12T14:37:31.420Z,0.90
2022-12-12T14:39:58.145Z,0.90
2022-12-12T14:42:24.885Z,0.90
2022-12-12T14:44:51.678Z,1.00
2022-12-12T14:47:18.441Z,0.90
2022-12-12T14:49:45.083Z,0.90
2022-12-12T14:52:11.676Z,0.90
2022-12-12T14:54:38.300Z,0.90
2022-12-12T14:57:04.890Z,0.90
2022-12-12T14:59:31.478Z,0.90
2022-12-12T15:01:58.138Z,0.90
2022-12-12T15:04:25.735Z,0.90
2022-12-12T15:06:52.399Z,0.90
2022-12-12T15:09:19.116Z,0.90
2022-12-12T15:11:45.855Z,0.90
2022-12-12T15:14:12.533Z,0.90
2022-12-12T15:16:42.736Z,0.90
2022-12-12T15:19:12.712Z,0.90
2022-12-12T15:21:39.309Z,0.90
2022-12-12T15:24:05.910Z,0.80
2022-12-12T15:26:32.533Z,0.90
2022-12-12T15:28:59.243Z,0.90
2022-12-12T15:31:25.902Z,0.90
2022-12-12T15:33:52.668Z,0.90
2022-12-12T15:36:19.290Z,0.90
2022-12-12T15:38:45.950Z,0.90
2022-12-12T15:41:13.804Z,0.90
2022-12-12T15:43:40.554Z,0.90
2022-12-12T15:46:14.505Z,0.80
2022-12-12T15:48:41.410Z,0.80
2022-12-12T15:51:08.051Z,0.80
2022-12-12T15:53:34.683Z,0.80
2022-12-12T15:56:01.338Z,0.80
2022-12-12T15:58:29.618Z,0.80
2022-12-12T16:00:56.533Z,0.80
2022-12-12T16:03:23.257Z,0.70
2022-12-12T16:05:49.849Z,0.70
2022-12-12T16:08:16.645Z,0.60
2022-12-12T16:10:43.412Z,0.70
2022-12-12T16:13:10.039Z,0.60
2022-12-12T16:15:36.848Z,0.60
2022-12-12T16:18:03.520Z,0.50
2022-12-12T16:20:30.859Z,0.40
2022-12-12T16:22:57.657Z,0.50
2022-12-12T16:25:24.329Z,0.40
2022-12-12T16:27:51.034Z,0.40
2022-12-12T16:30:17.930Z,0.30
2022-12-12T16:32:44.701Z,0.20
2022-12-12T16:35:11.479Z,0.20
2022-12-12T16:37:38.118Z,0.20
2022-12-12T16:40:04.727Z,0.20
2022-12-12T16:42:31.319Z,0.20
2022-12-12T16:44:57.933Z,0.20
2022-12-12T16:47:28.071Z,0.20
2022-12-12T16:49:54.988Z,0.10
2022-12-12T16:52:21.661Z,0.00
2022-12-12T16:54:53.094Z,0.00
2022-12-12T16:57:20.222Z,0.00
2022-12-12T16:59:46.882Z,0.00
2022-12-12T17:02:13.694Z,0.00
2022-12-12T17:04:40.433Z,0.00
2022-12-12T17:07:08.119Z,0.00
2022-12-12T17:09:34.760Z,0.00
2022-12-12T17:12:01.478Z,-0.10
2022-12-12T17:14:28.158Z,-0.10
2022-12-12T17:16:56.080Z,-0.10
2022-12-12T17:19:22.844Z,-0.20
2022-12-12T17:21:49.530Z,-0.20
2022-12-12T17:24:16.259Z,-0.20
2022-12-12T17:26:42.863Z,-0.20
2022-12-12T17:29:09.542Z,-0.20
2022-12-12T17:31:36.293Z,-0.20
2022-12-12T17:34:02.967Z,-0.30
2022-12-12T17:36:29.733Z,-0.30
2022-12-12T17:38:56.366Z,-0.40
2022-12-12T17:41:22.984Z,-0.40
2022-12-12T17:43:55.278Z,-0.40
2022-12-12T17:46:22.240Z,-0.50
2022-12-12T17:48:48.939Z,-0.50
2022-12-12T17:51:15.626Z,-0.50
2022-12-12T17:53:42.271Z,-0.60
2022-12-12T17:56:08.895Z,-0.60
2022-12-12T17:58:35.574Z,-0.70
2022-12-12T18:01:02.279Z,-0.70
2022-12-12T18:03:29.180Z,-0.80
2022-12-12T18:05:55.847Z,-0.70
2022-12-12T18:08:22.507Z,-0.80
2022-12-12T18:10:49.170Z,-0.90
2022-12-12T18:13:15.779Z,-0.90
2022-12-12T18:15:44.444Z,-0.90
2022-12-12T18:18:11.825Z,-0.90
2022-12-12T18:20:39.991Z,-1.00
2022-12-12T18:23:06.609Z,-1.10
2022-12-12T18:25:33.217Z,-1.00
2022-12-12T18:27:59.844Z,-1.00
2022-12-12T18:30:26.481Z,-1.00
2022-12-12T18:32:54.521Z,-1.00
2022-12-12T18:35:24.027Z,-1.00
2022-12-12T18:37:50.648Z,-0.80
2022-12-12T18:40:17.320Z,-0.70
2022-12-12T18:42:44.136Z,-0.60
2022-12-12T18:45:12.133Z,-0.50
2022-12-12T18:47:38.773Z,-0.40
2022-12-12T18:50:05.625Z,-0.30
2022-12-12T18:52:32.298Z,-0.20
2022-12-12T18:54:59.001Z,-0.10
2022-12-12T18:57:25.753Z,-0.10
2022-12-12T18:59:52.368Z,0.00
2022-12-12T19:02:19.049Z,0.10
2022-12-12T19:04:47.191Z,0.00
2022-12-12T19:07:13.939Z,0.10
2022-12-12T19:09:41.026Z,0.20
2022-12-12T19:12:07.737Z,0.20
2022-12-12T19:14:59.731Z,0.20
2022-12-12T19:17:27.114Z,0.20
2022-12-12T19:19:54.231Z,0.30
2022-12-12T19:25:07.700Z,0.40
2022-12-12T19:27:34.434Z,0.40
2022-12-12T19:30:01.183Z,0.40
2022-12-12T19:32:27.992Z,0.40
2022-12-12T19:34:54.776Z,0.40
2022-12-12T19:37:21.498Z,0.30
2022-12-12T19:39:50.582Z,0.40
2022-12-12T19:42:17.333Z,0.40
2022-12-12T19:44:44.026Z,0.50
2022-12-12T19:47:10.866Z,0.40
2022-12-12T19:49:37.587Z,0.40
2022-12-12T19:52:06.846Z,0.50
2022-12-12T19:54:37.281Z,0.50
2022-12-12T19:57:03.923Z,0.50
2022-12-12T19:59:30.654Z,0.50
2022-12-12T20:01:58.072Z,0.50
2022-12-12T20:04:26.129Z,0.50
2022-12-12T20:06:52.772Z,0.50
2022-12-12T20:09:19.777Z,0.50
2022-12-12T20:11:46.438Z,0.50
2022-12-12T20:14:13.202Z,0.50
2022-12-12T20:16:39.873Z,0.50
2022-12-12T20:19:06.511Z,0.50
2022-12-12T20:24:20.259Z,0.50
2022-12-12T20:26:46.919Z,0.50
2022-12-12T20:29:13.532Z,0.50
2022-12-12T20:31:40.948Z,0.50
2022-12-12T20:34:07.691Z,0.60
2022-12-12T20:36:34.352Z,0.50
2022-12-12T20:39:01.034Z,0.50
2022-12-12T20:41:27.689Z,0.50
2022-12-12T20:43:54.399Z,0.50
2022-12-12T20:46:21.087Z,0.50
2022-12-12T20:48:47.780Z,0.50
2022-12-12T20:51:31.291Z,0.50
2022-12-12T20:54:01.056Z,0.50
2022-12-12T20:56:27.642Z,0.50
2022-12-12T20:58:54.615Z,0.60
2022-12-12T21:01:21.390Z,0.50
2022-12-12T21:03:48.182Z,0.50
2022-12-12T21:06:14.874Z,0.50
2022-12-12T21:08:41.760Z,0.50
2022-12-12T21:11:08.531Z,0.40
2022-12-12T21:13:35.259Z,0.40
2022-12-12T21:16:01.984Z,0.40
2022-12-12T21:18:28.657Z,0.40
2022-12-12T21:20:55.499Z,0.30
2022-12-12T21:23:22.409Z,0.30
2022-12-12T21:25:49.005Z,0.20
2022-12-12T21:28:15.659Z,0.20
2022-12-12T21:30:42.547Z,0.10
2022-12-12T21:33:09.251Z,0.10
2022-12-12T21:35:35.902Z,0.00
2022-12-12T21:38:02.577Z,0.00
2022-12-12T21:40:29.299Z,0.00
2022-12-12T21:42:55.951Z,-0.10
2022-12-12T21:45:22.675Z,-0.10
2022-12-12T21:47:49.301Z,-0.20
2022-12-12T21:50:15.954Z,-0.30
2022-12-12T21:52:44.235Z,-0.30
2022-12-12T21:55:10.952Z,-0.40
2022-12-12T21:57:37.606Z,-0.40
2022-12-12T22:00:04.520Z,-0.40
2022-12-12T22:02:31.206Z,-0.50
2022-12-12T22:04:57.903Z,-0.50
2022-12-12T22:07:24.567Z,-0.50
2022-12-12T22:09:56.946Z,-0.70
2022-12-12T22:12:30.115Z,-0.70
2022-12-12T22:14:56.704Z,-0.70
2022-12-12T22:17:23.316Z,-0.80
2022-12-12T22:19:50.008Z,-0.80
2022-12-12T22:22:16.746Z,-0.90
2022-12-12T22:24:43.399Z,-0.90
2022-12-12T22:27:10.058Z,-1.00
2022-12-12T22:29:36.796Z,-1.00
2022-12-12T22:32:03.560Z,-1.00
2022-12-12T22:34:30.237Z,-1.10
2022-12-12T22:36:56.892Z,-1.10
2022-12-12T22:39:23.641Z,-1.20
2022-12-12T22:41:50.961Z,-1.20
2022-12-12T22:44:17.722Z,-1.30
2022-12-12T22:46:44.737Z,-1.40
2022-12-12T22:49:11.455Z,-1.30
2022-12-12T22:51:38.198Z,-1.50
2022-12-12T22:54:05.293Z,-1.50
2022-12-12T22:56:31.956Z,-1.60
2022-12-12T22:58:58.620Z,-1.70
2022-12-12T23:01:25.220Z,-1.60
2022-12-12T23:03:51.840Z,-1.70
2022-12-12T23:06:18.542Z,-1.80
2022-12-12T23:08:45.110Z,-1.90
2022-12-12T23:11:11.752Z,-1.90
2022-12-12T23:13:39.455Z,-2.00
2022-12-12T23:16:06.149Z,-2.00
2022-12-12T23:18:32.869Z,-2.00
2022-12-12T23:20:59.457Z,-1.90
2022-12-12T23:23:26.108Z,-2.00
2022-12-12T23:25:52.759Z,-2.00
2022-12-12T23:28:19.697Z,-2.10
2022-12-12T23:30:46.309Z,-2.10
2022-12-12T23:33:13.126Z,-2.20
2022-12-12T23:35:39.742Z,-2.20
2022-12-12T23:38:06.362Z,-2.30
2022-12-12T23:40:33.031Z,-2.30
2022-12-12T23:42:59.618Z,-2.40
2022-12-12T23:45:26.324Z,-2.40
2022-12-12T23:47:52.987Z,-2.40
2022-12-12T23:50:19.646Z,-2.40
2022-12-12T23:52:46.298Z,-2.40
2022-12-12T23:55:13.129Z,-2.40
2022-12-12T23:57:40.012Z,-2.40
